< < Back
Terminal Aerodrome Forecast


Current Version              Previous Versions:   1  2  3  4  5  6  7  8  9  

Terminal Aerodrome Forecast

675
FTUS44 KBMX 281700
TAFTCL
TAF
KTCL 281720Z 2818/2918 32012G18KT P6SM FEW050
     FM290100 34005KT P6SM SKC
     FM291500 35010KT P6SM SKC=

Latest METAR

410
SAUS70 KWBC 281800 RRI
MTRTCL
METAR KTCL 281753Z 33010G17KT 10SM FEW048 34/21 A2998 RMK AO2 SLP148
T03390211 10344 20267 58008


USA.gov is the U.S. government's official web portal to all federal, state and local government web resources and services.